createdAt,value
2023-04-15T00:02:33.019Z,68.91
2023-04-15T00:07:36.306Z,68.98
2023-04-15T00:12:39.146Z,69.25
2023-04-15T00:17:42.161Z,69.56
2023-04-15T00:22:45.087Z,70.03
2023-04-15T00:27:47.963Z,70.46
2023-04-15T00:32:50.925Z,70.79
2023-04-15T00:37:54.059Z,71.04
2023-04-15T00:42:57.027Z,71.44
2023-04-15T00:48:00.062Z,71.71
2023-04-15T00:53:02.979Z,72.13
2023-04-15T00:58:05.836Z,72.12
2023-04-15T01:03:09.230Z,72.24
2023-04-15T01:08:12.507Z,72.53
2023-04-15T01:13:15.393Z,73.04
2023-04-15T01:18:19.345Z,72.76
2023-04-15T01:23:23.311Z,73.10
2023-04-15T01:28:27.216Z,73.29
2023-04-15T01:33:30.029Z,73.65
2023-04-15T01:38:33.476Z,73.56
2023-04-15T01:43:37.389Z,73.57
2023-04-15T01:48:40.207Z,73.89
2023-04-15T01:53:43.104Z,73.83
2023-04-15T01:58:46.500Z,73.97
2023-04-15T02:03:49.590Z,74.04
2023-04-15T02:08:52.507Z,74.28
2023-04-15T02:13:55.294Z,74.45
2023-04-15T02:18:58.459Z,74.53
2023-04-15T02:24:02.387Z,74.69
2023-04-15T02:29:05.300Z,74.93
2023-04-15T02:34:08.324Z,75.17
2023-04-15T02:39:12.812Z,75.29
2023-04-15T02:44:15.626Z,75.58
2023-04-15T02:49:19.076Z,75.16
2023-04-15T02:54:26.166Z,75.46
2023-04-15T02:59:29.680Z,75.63
2023-04-15T03:04:32.489Z,75.39
2023-04-15T03:09:35.307Z,75.54
2023-04-15T03:14:38.181Z,75.18
2023-04-15T03:19:41.065Z,75.20
2023-04-15T03:24:43.902Z,75.43
2023-04-15T03:29:46.741Z,75.70
2023-04-15T03:34:49.609Z,75.44
2023-04-15T03:39:52.402Z,75.42
2023-04-15T03:44:55.261Z,75.60
2023-04-15T03:49:58.111Z,75.28
2023-04-15T03:55:00.907Z,75.48
2023-04-15T04:00:06.276Z,75.59
2023-04-15T04:05:09.549Z,75.51
2023-04-15T04:10:12.366Z,75.51
2023-04-15T04:15:15.260Z,75.55
2023-04-15T04:20:18.095Z,75.91
2023-04-15T04:25:20.941Z,75.89
2023-04-15T04:30:23.738Z,75.83
2023-04-15T04:35:26.639Z,75.97
2023-04-15T04:40:29.507Z,76.30
2023-04-15T04:45:32.377Z,76.37
2023-04-15T04:50:35.944Z,76.36
2023-04-15T04:55:38.771Z,76.59
2023-04-15T05:00:42.179Z,76.18
2023-04-15T05:05:45.027Z,76.40
2023-04-15T05:10:47.889Z,76.43
2023-04-15T05:15:50.732Z,76.51
2023-04-15T05:20:53.636Z,76.47
2023-04-15T05:25:56.443Z,76.73
2023-04-15T05:30:59.726Z,77.15
2023-04-15T05:36:02.586Z,77.04
2023-04-15T05:41:05.616Z,76.64
2023-04-15T05:46:08.705Z,77.08
2023-04-15T05:51:11.816Z,77.32
2023-04-15T05:56:14.632Z,77.14
2023-04-15T06:01:17.540Z,76.91
2023-04-15T06:06:21.014Z,77.17
2023-04-15T06:11:24.302Z,77.31
2023-04-15T06:16:27.511Z,77.58
2023-04-15T06:21:31.278Z,77.57
2023-04-15T06:26:34.077Z,77.52
2023-04-15T06:31:37.508Z,77.73
2023-04-15T06:36:40.545Z,77.97
2023-04-15T06:41:43.391Z,78.05
2023-04-15T06:46:46.714Z,78.46
2023-04-15T06:51:49.577Z,78.19
2023-04-15T06:56:52.808Z,78.02
2023-04-15T07:01:55.751Z,77.66
2023-04-15T07:06:58.660Z,77.61
2023-04-15T07:12:01.473Z,77.36
2023-04-15T07:17:04.314Z,77.50
2023-04-15T07:22:07.814Z,77.77
2023-04-15T07:27:10.804Z,77.52
2023-04-15T07:32:13.892Z,77.40
2023-04-15T07:37:16.705Z,77.76
2023-04-15T07:42:19.741Z,77.63
2023-04-15T07:47:22.774Z,77.38
2023-04-15T07:52:25.910Z,77.11
2023-04-15T07:57:28.811Z,77.14
2023-04-15T08:02:32.662Z,76.39
2023-04-15T08:07:38.416Z,76.14
2023-04-15T08:12:41.606Z,76.04
2023-04-15T08:17:44.444Z,75.77
2023-04-15T08:22:51.829Z,75.77
2023-04-15T08:27:57.629Z,75.54
2023-04-15T08:33:00.831Z,75.33
2023-04-15T08:38:03.691Z,75.58
2023-04-15T08:43:09.406Z,76.09
2023-04-15T08:48:18.618Z,76.40
2023-04-15T08:53:22.060Z,75.93
2023-04-15T08:58:25.544Z,75.67
2023-04-15T09:03:28.959Z,75.90
2023-04-15T09:08:42.443Z,75.75
2023-04-15T09:13:46.418Z,76.17
2023-04-15T09:18:49.339Z,75.97
2023-04-15T09:24:02.251Z,75.55
2023-04-15T09:29:15.183Z,74.37
2023-04-15T09:34:18.048Z,73.42
2023-04-15T09:39:21.672Z,73.48
2023-04-15T09:44:31.646Z,73.67
2023-04-15T09:49:34.608Z,73.51
2023-04-15T09:54:38.966Z,73.93
2023-04-15T09:59:44.120Z,73.94
2023-04-15T10:04:49.580Z,74.67
2023-04-15T10:09:53.304Z,74.83
2023-04-15T10:15:05.242Z,74.04
2023-04-15T10:20:10.693Z,74.30
2023-04-15T10:25:15.754Z,73.95
2023-04-15T10:30:19.546Z,72.83
2023-04-15T10:35:26.560Z,72.11
2023-04-15T10:40:32.062Z,71.94
2023-04-15T10:45:37.866Z,72.08
2023-04-15T10:50:40.727Z,71.65
2023-04-15T10:55:43.561Z,71.59
2023-04-15T11:00:54.602Z,71.70
2023-04-15T11:05:58.210Z,71.27
2023-04-15T11:11:00.991Z,69.78
2023-04-15T11:16:04.014Z,69.29
2023-04-15T11:21:08.263Z,69.88
2023-04-15T11:26:12.594Z,69.17
2023-04-15T11:31:18.456Z,68.02
2023-04-15T11:36:21.514Z,68.88
2023-04-15T11:41:24.758Z,68.76
2023-04-15T11:46:32.031Z,67.38
2023-04-15T11:51:35.942Z,66.72
2023-04-15T11:56:39.089Z,66.03
2023-04-15T12:01:46.693Z,66.11
2023-04-15T12:06:49.880Z,65.81
2023-04-15T12:11:58.686Z,65.75
2023-04-15T12:17:07.377Z,66.31
2023-04-15T12:22:16.364Z,66.73
2023-04-15T12:27:19.518Z,66.35
2023-04-15T12:32:23.795Z,66.22
2023-04-15T12:37:28.481Z,66.05
2023-04-15T12:42:35.732Z,65.14
2023-04-15T12:47:40.132Z,65.01
2023-04-15T12:52:43.065Z,65.10
2023-04-15T12:57:45.889Z,65.50
2023-04-15T13:02:51.565Z,64.43
2023-04-15T13:07:54.485Z,63.16
2023-04-15T13:12:57.741Z,63.34
2023-04-15T13:18:01.198Z,63.10
2023-04-15T13:23:04.193Z,63.04
2023-04-15T13:28:07.020Z,62.14
2023-04-15T13:33:10.106Z,62.82
2023-04-15T13:38:13.026Z,63.04
2023-04-15T13:43:16.440Z,63.30
2023-04-15T13:48:19.365Z,63.12
2023-04-15T13:53:37.734Z,62.61
2023-04-15T13:58:42.279Z,62.67
2023-04-15T14:03:45.320Z,62.90
2023-04-15T14:08:48.341Z,62.77
2023-04-15T14:13:51.260Z,62.82
2023-04-15T14:18:54.078Z,63.48
2023-04-15T14:23:56.854Z,63.05
2023-04-15T14:28:59.987Z,62.83
2023-04-15T14:34:03.450Z,63.13
2023-04-15T14:39:06.701Z,62.97
2023-04-15T14:44:11.677Z,63.52
2023-04-15T14:49:14.847Z,64.01
2023-04-15T14:54:17.642Z,65.29
2023-04-15T14:59:20.574Z,63.69
2023-04-15T15:04:23.523Z,63.43
2023-04-15T15:09:27.409Z,64.25
2023-04-15T15:14:30.341Z,65.46
2023-04-15T15:19:33.342Z,66.31
2023-04-15T15:24:36.156Z,66.94
2023-04-15T15:29:39.101Z,67.75
2023-04-15T15:34:41.897Z,68.84
2023-04-15T15:39:45.189Z,69.70
2023-04-15T15:44:49.432Z,70.10
2023-04-15T15:49:52.983Z,70.93
2023-04-15T15:54:55.859Z,70.28
2023-04-15T16:00:10.290Z,69.55
2023-04-15T16:05:14.695Z,70.39
2023-04-15T16:10:17.585Z,70.61
2023-04-15T16:15:20.642Z,70.85
2023-04-15T16:20:23.590Z,70.04
2023-04-15T16:25:26.520Z,70.58
2023-04-15T16:30:29.516Z,71.13
2023-04-15T16:35:34.551Z,72.07
2023-04-15T16:40:38.312Z,73.69
2023-04-15T16:45:41.292Z,75.13
2023-04-15T16:50:44.602Z,70.95
2023-04-15T16:55:47.492Z,70.21
2023-04-15T17:00:51.241Z,71.19
2023-04-15T17:05:54.056Z,71.53
2023-04-15T17:10:58.434Z,71.93
2023-04-15T17:16:02.402Z,71.22
2023-04-15T17:21:06.175Z,71.87
2023-04-15T17:26:08.884Z,72.60
2023-04-15T17:31:12.234Z,73.28
2023-04-15T17:36:15.081Z,73.52
2023-04-15T17:41:17.898Z,73.99
2023-04-15T17:46:20.817Z,74.24
2023-04-15T17:51:23.796Z,74.48
2023-04-15T17:56:29.265Z,74.99
2023-04-15T18:01:32.297Z,75.19
2023-04-15T18:06:35.720Z,75.20
2023-04-15T18:11:40.117Z,74.90
2023-04-15T18:16:43.888Z,74.75
2023-04-15T18:21:46.730Z,74.83
2023-04-15T18:26:49.639Z,74.97
2023-04-15T18:31:52.524Z,74.80
2023-04-15T18:36:58.986Z,74.95
2023-04-15T18:42:02.208Z,75.07
2023-04-15T18:47:05.107Z,75.31
2023-04-15T18:52:09.887Z,75.25
2023-04-15T18:57:12.969Z,75.41
2023-04-15T19:02:31.034Z,75.40
2023-04-15T19:07:34.940Z,75.61
2023-04-15T19:12:41.119Z,76.01
2023-04-15T19:17:44.745Z,75.88
2023-04-15T19:22:48.345Z,75.90
2023-04-15T19:27:51.118Z,75.80
2023-04-15T19:32:54.298Z,76.09
2023-04-15T19:37:57.179Z,76.11
2023-04-15T19:43:00.032Z,76.06
2023-04-15T19:48:02.925Z,76.22
2023-04-15T19:53:05.972Z,76.41
2023-04-15T19:58:09.177Z,76.52
2023-04-15T20:03:12.258Z,76.59
2023-04-15T20:08:15.458Z,76.47
2023-04-15T20:13:18.394Z,76.54
2023-04-15T20:18:21.225Z,76.68
2023-04-15T20:23:24.019Z,76.59
2023-04-15T20:28:27.823Z,76.62
2023-04-15T20:33:30.712Z,76.95
2023-04-15T20:38:33.583Z,76.98
2023-04-15T20:43:38.895Z,77.08
2023-04-15T20:48:41.706Z,77.04
2023-04-15T20:53:47.689Z,76.89
2023-04-15T20:58:50.513Z,77.02
2023-04-15T21:03:53.353Z,77.12
2023-04-15T21:08:56.209Z,76.84
2023-04-15T21:14:00.488Z,76.89
2023-04-15T21:19:03.833Z,76.86
2023-04-15T21:24:07.978Z,76.77
2023-04-15T21:29:12.021Z,76.70
2023-04-15T21:34:15.262Z,76.79
2023-04-15T21:39:18.170Z,76.87
2023-04-15T21:44:21.059Z,76.71
2023-04-15T21:49:25.528Z,76.70
2023-04-15T21:54:28.644Z,76.69
2023-04-15T21:59:31.468Z,76.38
2023-04-15T22:04:34.299Z,76.52
2023-04-15T22:09:37.548Z,76.95
2023-04-15T22:14:40.773Z,76.96
2023-04-15T22:19:45.356Z,76.62
2023-04-15T22:24:48.211Z,76.68
2023-04-15T22:29:51.367Z,76.76
2023-04-15T22:34:54.290Z,76.76
2023-04-15T22:39:57.746Z,76.47
2023-04-15T22:45:00.887Z,76.80
2023-04-15T22:50:03.939Z,76.96
2023-04-15T22:55:08.242Z,77.22
2023-04-15T23:00:12.153Z,77.10
2023-04-15T23:05:15.536Z,77.04
2023-04-15T23:10:18.569Z,76.77
2023-04-15T23:15:21.476Z,76.50
2023-04-15T23:20:24.337Z,76.74
2023-04-15T23:25:27.373Z,76.86
2023-04-15T23:30:30.928Z,76.94
2023-04-15T23:35:33.777Z,77.13
2023-04-15T23:40:36.597Z,77.26
2023-04-15T23:45:40.412Z,77.53
2023-04-15T23:50:43.519Z,77.53
2023-04-15T23:55:46.663Z,78.09
